WN1092 / N7729A 7700 Squawk Report (28th of July, 2021)

Aircraft B737 Reg No. N7729A Age 15 years old
Model 737 Jet engines 2 First flight 08-06-06
Registered 24-12-14 Rollout 26-05-06 Delivered 16-06-06
Construction No. 32675 Line No. 1970 Series 76N
ADSHEX AA7409 Airline name Southwest Airlines Owner AFS Investments 55 LLC
Airfield based Dallas-Love Field~TX~N First tracked N/A

Flight history for N7729A

Route Flight No Date Playback
John Wayne Arpt Orange Co (SNA) - Metropolitan Oakland Intl (OAK) - Denver Intl (DEN) - Minneapolis-St.Paul Intl (MSP) WN3659 2021-09-18 04:28:00
Metropolitan Oakland Intl (OAK) - John Wayne Arpt Orange Co (SNA) WN647 2021-09-17 20:08:00
Chicago Midway Intl (MDW) - Ronald Reagan Washington Natl (DCA) WN3793 2021-09-17 03:08:00
Ronald Reagan Washington Natl (DCA) - Chicago Midway Intl (MDW) - Hartsfield Jackson Atlanta Intl (ATL) WN3206 2021-09-17 00:39:00
McCarran Intl (LAS) - Ontario Intl (ONT) - Chicago Midway Intl (MDW) - Ronald Reagan Washington Natl (DCA) WN4466 2021-09-16 22:11:00
John Wayne Arpt Orange Co (SNA) - McCarran Intl (LAS) WN720 2021-09-16 02:55:00
Albuquerque International Sunport (ABQ) - McCarran Intl (LAS) - John Wayne Arpt Orange Co (SNA) WN269 2021-09-16 01:01:00
Chicago Midway Intl (MDW) - Louis Armstrong New Orleans Intl (MSY) WN5248 2021-09-15 22:34:00
McCarran Intl (LAS) - Dallas Love Fld (DAL) WN5874 2021-09-15 18:31:00
Santa Barbara Muni (SBA) - McCarran Intl (LAS) WN5533 2021-09-15 14:50:00
San Antonio Intl (SAT) - Denver Intl (DEN) - Colorado Springs Municipal (COS) - Chicago Midway Intl (MDW) - Port Columbus (CMH) - McCarran Intl (LAS) - Santa Barbara Muni (SBA) WN674 2021-09-15 14:02:00
San Antonio Intl (SAT) - Denver Intl (DEN) - Colorado Springs Municipal (COS) - Chicago Midway Intl (MDW) - Port Columbus (CMH) - McCarran Intl (LAS) - Santa Barbara Muni (SBA) WN674 2021-09-15 03:31:00
Ronald Reagan Washington Natl (DCA) - Nashville Intl (BNA) - San Antonio Intl (SAT) WN5608 2021-09-14 04:02:00
Reno Tahoe Intl (RNO) - Metropolitan Oakland Intl (OAK) - Nashville Intl (BNA) - Ronald Reagan Washington Natl (DCA) WN3408 2021-09-13 22:04:00
Metropolitan Oakland Intl (OAK) - Nashville Intl (BNA) WN5389 2021-09-13 19:50:00
Portland Intl (PDX) - Metropolitan Oakland Intl (OAK) - Bob Hope (BUR) WN1278 2021-09-13 14:50:00
Denver Intl (DEN) - Portland Intl (PDX) WN2330 2021-09-13 12:55:00
Spokane Intl (GEG) - Metropolitan Oakland Intl (OAK) - Denver Intl (DEN) WN5124 2021-09-13 03:06:00
Sacramento Intl (SMF) - McCarran Intl (LAS) - Spokane Intl (GEG) WN2117 2021-09-12 21:19:00
San Diego Intl (SAN) - Sacramento Intl (SMF) WN215 2021-09-12 17:11:00
Time Lat Lon Altitude Heading Speed Vertical Rate
2021-07-28 11:57:01 GMT 34.896667 -82.218056 900 212 139
We lost coverage of the aircraft here for a total of 6 minutes
2021-07-28 11:51:00 GMT 35.132229 -82.024780 5,200 262 233 -2176
2021-07-28 11:50:58 GMT 35.132355 -82.023643 5,225 268 236 -2176
2021-07-28 11:50:46 GMT 35.131943 -82.007950 5,650 285 237 -1792
2021-07-28 11:50:34 GMT 35.124130 -81.993370 6,100 324 238 -1984
2021-07-28 11:50:22 GMT 35.114025 -81.986900 6,425 336 240 -1792
2021-07-28 11:50:17 GMT 35.106857 -81.985413 6,625 353 246 -1920
2021-07-28 11:50:05 GMT 35.093948 -81.983459 7,025 354 252 -2176
2021-07-28 11:49:55 GMT 35.081589 -81.981659 7,425 354 258 -2432
2021-07-28 11:49:25 GMT 35.045593 -81.976547 8,825 355 269 -3264
2021-07-28 11:49:22 GMT 35.042084 -81.976166 8,975 358 270 -3328
2021-07-28 11:49:13 GMT 35.031071 -81.976379 9,375 7 274 -2112
2021-07-28 11:49:00 GMT 35.013290 -81.984741 9,500 33 307 -384
2021-07-28 11:48:52 GMT 35.005329 -81.991364 9,575 34 314 -448
2021-07-28 11:48:42 GMT 34.993317 -82.001556 9,700 34 329 -1344
2021-07-28 11:48:19 GMT 34.963245 -82.026672 10,325 34 356 -896
2021-07-28 11:48:09 GMT 34.949478 -82.038162 10,475 34 356 -896
2021-07-28 11:47:59 GMT 34.936619 -82.049049 10,650 34 363 -1024
2021-07-28 11:47:21 GMT 34.881638 -82.098137 11,650 40 380 -2432
2021-07-28 11:47:18 GMT 34.879074 -82.101280 12,050 45 385 -2304
2021-07-28 11:47:09 GMT 34.867348 -82.115646 12,425 45 388 -2496
2021-07-28 11:46:58 GMT 34.854126 -82.131844 12,850 45 391 -2368
2021-07-28 11:46:49 GMT 34.842453 -82.146118 13,200 45 392 -2752
2021-07-28 11:46:39 GMT 34.830505 -82.160805 13,750 45 392 -2816
2021-07-28 11:46:35 GMT 34.825012 -82.167534 13,925 45 393 -1920
2021-07-28 11:46:27 GMT 34.814713 -82.180145 14,375 45 392 -3456
2021-07-28 11:46:24 GMT 34.811344 -82.184258 14,375 45 392 -3456
2021-07-28 11:46:18 GMT 34.802856 -82.194496 14,825 44 390 -3840
2021-07-28 11:46:15 GMT 34.799149 -82.198959 15,025 44 390 -4096
2021-07-28 11:46:08 GMT 34.789978 -82.210007 15,475 44 392 -3520
2021-07-28 11:45:58 GMT 34.777081 -82.225632 16,075 44 393 -3904
2021-07-28 11:45:56 GMT 34.773453 -82.229980 16,275 45 394 -3968
2021-07-28 11:45:48 GMT 34.764420 -82.240906 16,700 44 396 -3584
2021-07-28 11:45:44 GMT 34.759624 -82.246681 16,925 44 397 -3456
2021-07-28 11:45:35 GMT 34.746544 -82.261330 17,550 36 400 -3520
2021-07-28 11:45:28 GMT 34.733788 -82.271294 17,925 26 403 -3200
2021-07-28 11:45:22 GMT 34.725586 -82.275543 18,200 20 404 -3584
2021-07-28 11:45:15 GMT 34.713089 -82.279472 18,625 8 407 -3200
2021-07-28 11:45:12 GMT 34.705952 -82.280678 18,825 6 411 -3008
2021-07-28 11:45:03 GMT 34.690495 -82.282738 19,275 6 416 -3392
2021-07-28 11:44:57 GMT 34.677181 -82.284454 19,625 6 421 -3136
2021-07-28 11:44:52 GMT 34.668800 -82.285538 19,850 6 423 -3200
2021-07-28 11:44:46 GMT 34.655365 -82.287315 20,250 6 428 -4032
2021-07-28 11:44:42 GMT 34.647388 -82.288345 20,500 6 427 -3904
2021-07-28 11:44:35 GMT 34.635269 -82.289955 20,900 6 430 -3840
2021-07-28 11:44:32 GMT 34.629417 -82.290688 21,075 6 431 -3456
2021-07-28 11:44:25 GMT 34.615036 -82.292702 21,500 6 435 -3840
2021-07-28 11:44:22 GMT 34.607864 -82.293716 21,725 6 436 -4160
2021-07-28 11:44:14 GMT 34.592922 -82.295952 22,375 7 438 -3840
2021-07-28 11:44:11 GMT 34.587242 -82.296806 22,425 7 439 -3776
2021-07-28 11:44:03 GMT 34.571320 -82.299149 22,975 6 442 -4160
2021-07-28 11:44:00 GMT 34.565922 -82.299957 23,125 6 443 -3968
2021-07-28 11:43:55 GMT 34.552513 -82.301849 23,500 6 448 -2688
2021-07-28 11:43:51 GMT 34.545532 -82.302757 23,625 4 452 -2688
2021-07-28 11:43:42 GMT 34.528122 -82.303162 24,150 355 453 -4672
2021-07-28 11:43:30 GMT 34.491074 -82.294884 25,550 349 453 -5824
2021-07-28 11:43:21 GMT 34.482788 -82.292809 25,925 348 452 -5504
2021-07-28 11:43:13 GMT 34.462341 -82.286797 26,700 343 450 -4352
2021-07-28 11:43:10 GMT 34.462341 -82.286797 26,775 341 450 -4224
2021-07-28 11:43:01 GMT 34.443626 -82.276787 27,850 328 443 -6336
2021-07-28 11:42:55 GMT 34.435913 -82.270218 28,075 317 432 -6080
2021-07-28 11:42:52 GMT 34.429893 -82.264076 28,500 317 432 -6080
2021-07-28 11:42:49 GMT 34.425247 -82.258728 28,825 315 429 -5696
2021-07-28 11:42:43 GMT 34.416687 -82.248245 29,400 315 426 -5440
2021-07-28 11:42:39 GMT 34.411789 -82.242142 29,600 315 425 -5376
2021-07-28 11:42:32 GMT 34.402660 -82.230606 30,975 312 418 -5504
2021-07-28 11:42:27 GMT 34.396133 -82.221291 30,800 307 414 -5952
2021-07-28 11:42:22 GMT 34.390732 -82.211647 31,325 299 407 -5696
2021-07-28 11:42:17 GMT 34.386887 -82.202843 31,725 296 405 -5248
2021-07-28 11:42:13 GMT 34.383575 -82.194267 32,050 295 402 -4992
2021-07-28 11:42:10 GMT 34.381481 -82.188835 32,225 295 400 -4800
2021-07-28 11:42:07 GMT 34.378738 -82.181602 32,550 295 399 -4544
2021-07-28 11:42:01 GMT 34.374115 -82.169380 33,075 294 396 -4160
2021-07-28 11:41:58 GMT 34.371471 -82.162338 33,250 294 394 -4032
2021-07-28 11:41:51 GMT 34.364395 -82.141228 33,900 290 392 -3712
2021-07-28 11:41:47 GMT 34.364395 -82.141228 33,900 288 391 -3968
2021-07-28 11:41:40 GMT 34.361389 -82.124542 34,400 274 388 -3392
2021-07-28 11:41:36 GMT 34.361046 -82.118973 34,525 271 388 -3328
2021-07-28 11:41:29 GMT 34.361694 -82.103691 34,925 257 386 -3136
2021-07-28 11:41:26 GMT 34.362953 -82.096085 35,125 254 386 -3072
2021-07-28 11:41:19 GMT 34.367340 -82.081436 35,475 243 386 -2944
2021-07-28 11:41:16 GMT 34.369888 -82.075653 35,625 240 387 -2880
2021-07-28 11:41:09 GMT 34.378082 -82.062202 35,975 226 392 -2624
2021-07-28 11:41:04 GMT 34.383316 -82.055984 36,150 221 394 -2496
2021-07-28 11:40:59 GMT 34.391602 -82.048424 36,375 210 400 -2304
2021-07-28 11:40:55 GMT 34.397232 -82.044556 36,500 208 402 -2240
2021-07-28 11:40:45 GMT 34.415977 -82.036514 36,900 192 414 -2112
2021-07-28 11:40:38 GMT 34.429291 -82.033424 37,125 191 416 -1792
2021-07-28 11:40:33 GMT 34.436089 -82.031937 37,225 191 417 -1664
2021-07-28 11:40:27 GMT 34.449280 -82.028969 37,425 191 417 -1856
2021-07-28 11:40:24 GMT 34.455078 -82.027641 37,900 191 416 -2496
2021-07-28 11:40:21 GMT 34.459873 -82.026505 37,650 191 416 -2688
2021-07-28 11:40:17 GMT 34.468094 -82.024712 37,850 191 414 -2240
2021-07-28 11:40:13 GMT 34.475647 -82.023087 37,950 190 415 -960
2021-07-28 11:40:10 GMT 34.480125 -82.022156 37,975 190 417 -448
2021-07-28 11:40:03 GMT 34.495285 -82.019218 38,000 189 423 0
2021-07-28 11:39:59 GMT 34.500961 -82.018265 37,975 188 427 0
2021-07-28 11:39:56 GMT 34.507645 -82.017090 37,975 188 425 0
2021-07-28 11:39:51 GMT 34.518997 -82.015228 37,975 188 427 0
2021-07-28 11:39:43 GMT 34.534790 -82.012772 37,975 187 430 0
2021-07-28 11:39:40 GMT 34.539246 -82.012138 38,000 187 431 0
2021-07-28 11:39:35 GMT 34.549164 -82.010765 38,000 187 431 -64
2021-07-28 11:39:32 GMT 34.556488 -82.009743 38,000 187 433 -64
2021-07-28 11:39:29 GMT 34.561779 -82.009048 38,000 187 433 0
2021-07-28 11:39:24 GMT 34.570038 -82.007950 38,000 187 435 0
2021-07-28 11:39:20 GMT 34.581188 -82.006477 38,000 187 436 0
2021-07-28 11:39:14 GMT 34.591385 -82.005157 38,000 187 437 -64
2021-07-28 11:39:08 GMT 34.602264 -82.003693 38,000 187 438 0
2021-07-28 11:39:02 GMT 34.616867 -82.001564 37,975 188 439 -64
2021-07-28 11:38:57 GMT 34.624374 -82.000275 38,000 189 439 0
2021-07-28 11:38:53 GMT 34.634212 -81.998520 38,000 189 439 0
2021-07-28 11:38:50 GMT 34.640991 -81.997299 38,000 189 439 0
2021-07-28 11:38:47 GMT 34.644699 -81.996628 38,000 189 439 0
2021-07-28 11:38:43 GMT 34.652554 -81.995255 38,000 189 439 0
2021-07-28 11:38:38 GMT 34.665310 -81.992912 38,000 189 439 0
2021-07-28 11:38:33 GMT 34.674774 -81.991188 38,000 189 439 0
2021-07-28 11:38:27 GMT 34.685795 -81.989250 38,000 189 439 64
2021-07-28 11:38:22 GMT 34.695374 -81.987495 38,000 189 439 0
2021-07-28 11:38:17 GMT 34.707825 -81.985252 38,000 189 439 -64
2021-07-28 11:38:12 GMT 34.715790 -81.983849 38,000 189 439 0
2021-07-28 11:38:07 GMT 34.726063 -81.981979 38,000 189 439 0
2021-07-28 11:38:03 GMT 34.735977 -81.980270 38,000 189 439 0
2021-07-28 11:37:56 GMT 34.750397 -81.977684 38,000 189 439 0
2021-07-28 11:37:51 GMT 34.760414 -81.975922 38,000 189 439 0
2021-07-28 11:37:47 GMT 34.768021 -81.974602 38,000 189 439 0
2021-07-28 11:37:44 GMT 34.772003 -81.973869 38,000 189 439 0
2021-07-28 11:37:39 GMT 34.784672 -81.971626 38,000 189 439 0
2021-07-28 11:37:34 GMT 34.791885 -81.970367 38,000 189 439 64
2021-07-28 11:37:31 GMT 34.798233 -81.969215 38,000 189 439 0
2021-07-28 11:37:24 GMT 34.813393 -81.966476 38,000 189 439 0
2021-07-28 11:37:21 GMT 34.819336 -81.965408 38,000 189 439 0
2021-07-28 11:37:14 GMT 34.831966 -81.963158 38,000 189 439 0
2021-07-28 11:37:11 GMT 34.839890 -81.961761 38,000 189 439 0
2021-07-28 11:37:06 GMT 34.849915 -81.960030 38,000 189 439 0
2021-07-28 11:37:03 GMT 34.855244 -81.959091 38,000 189 439 0
2021-07-28 11:37:00 GMT 34.860458 -81.958122 38,000 189 439 0
2021-07-28 11:36:55 GMT 34.876282 -81.955376 38,000 189 439 0
2021-07-28 11:36:49 GMT 34.882198 -81.954285 38,000 189 439 0
2021-07-28 11:36:43 GMT 34.897652 -81.951599 38,000 189 439 64
2021-07-28 11:36:38 GMT 34.907959 -81.949768 38,000 189 440 0
2021-07-28 11:36:32 GMT 34.918091 -81.947990 38,000 189 440 0
2021-07-28 11:36:27 GMT 34.927444 -81.946335 38,000 189 440 0
2021-07-28 11:36:24 GMT 34.935196 -81.944946 38,000 189 440 0
2021-07-28 11:36:21 GMT 34.938354 -81.944443 38,000 189 440 0
2021-07-28 11:36:16 GMT 34.950768 -81.942268 38,000 189 440 0
2021-07-28 11:36:13 GMT 34.957077 -81.941139 38,000 189 440 0
2021-07-28 11:36:09 GMT 34.964874 -81.939751 38,000 189 440 0
2021-07-28 11:36:04 GMT 34.973740 -81.938164 38,000 189 440 0
2021-07-28 11:36:01 GMT 34.980698 -81.936874 38,000 189 441 0
2021-07-28 11:35:56 GMT 34.991131 -81.935120 38,000 187 443 0
2021-07-28 11:35:52 GMT 35.000534 -81.933861 38,000 186 443 0
2021-07-28 11:35:47 GMT 35.007889 -81.933060 38,000 183 445 0
2021-07-28 11:35:44 GMT 35.014023 -81.932564 38,000 183 446 0
2021-07-28 11:35:41 GMT 35.021343 -81.932198 38,000 182 446 0
2021-07-28 11:35:38 GMT 35.028946 -81.931946 38,000 181 448 0
2021-07-28 11:35:34 GMT 35.036041 -81.931946 38,000 170 455 0
2021-07-28 11:35:31 GMT 35.043221 -81.932144 38,000 177 450 0
2021-07-28 11:35:27 GMT 35.050064 -81.932487 38,000 176 450 64
2021-07-28 11:35:24 GMT 35.056229 -81.932953 38,000 175 452 64
2021-07-28 11:35:20 GMT 35.064835 -81.933846 38,000 173 453 0
2021-07-28 11:35:13 GMT 35.079254 -81.936035 38,000 170 456 1536
2021-07-28 11:35:10 GMT 35.087029 -81.937523 38,000 170 455 0
2021-07-28 11:35:03 GMT 35.099876 -81.940041 38,000 170 455 0
2021-07-28 11:34:59 GMT 35.108185 -81.941643 38,000 170 455 0
2021-07-28 11:34:55 GMT 35.118576 -81.943710 38,000 170 455 -64
2021-07-28 11:34:51 GMT 35.124619 -81.944893 38,000 170 455 -128
2021-07-28 11:34:48 GMT 35.129929 -81.945953 38,000 170 455 -64
2021-07-28 11:34:42 GMT 35.143589 -81.948624 38,000 170 455 512
2021-07-28 11:34:39 GMT 35.152386 -81.950394 37,950 170 455 960
2021-07-28 11:34:34 GMT 35.162952 -81.952454 37,825 170 455 1344
2021-07-28 11:34:30 GMT 35.169296 -81.953751 37,700 170 456 1536
2021-07-28 11:34:27 GMT 35.173691 -81.954643 37,700 170 456 1536
2021-07-28 11:34:21 GMT 35.187653 -81.957390 37,375 170 458 1536
2021-07-28 11:34:18 GMT 35.195541 -81.958984 37,425 170 458 1536
2021-07-28 11:34:13 GMT 35.203175 -81.960464 37,325 170 458 1664
2021-07-28 11:34:10 GMT 35.208984 -81.961655 37,250 170 459 1664
2021-07-28 11:34:07 GMT 35.217373 -81.963326 37,150 170 459 1472
2021-07-28 11:34:03 GMT 35.225193 -81.964874 37,075 170 459 1216
2021-07-28 11:34:00 GMT 35.232826 -81.966362 37,000 170 459 512
2021-07-28 11:33:57 GMT 35.260620 -81.971916 37,000 170 459 0
2021-07-28 11:33:46 GMT 35.260620 -81.971916 37,000 170 459 0
2021-07-28 11:33:40 GMT 35.274494 -81.974663 37,000 170 459 0
2021-07-28 11:33:36 GMT 35.283737 -81.976486 37,000 170 458 0
2021-07-28 11:33:31 GMT 35.293579 -81.978439 37,000 170 459 0
2021-07-28 11:33:28 GMT 35.299850 -81.979691 37,000 170 459 0
2021-07-28 11:33:25 GMT 35.305435 -81.980782 37,000 170 459 -64
2021-07-28 11:33:21 GMT 35.312073 -81.982101 37,000 170 459 -64
2021-07-28 11:33:18 GMT 35.321228 -81.983932 37,000 170 459 0
2021-07-28 11:33:15 GMT 35.327271 -81.985130 37,000 170 459 0
2021-07-28 11:33:09 GMT 35.338989 -81.987419 37,000 170 459 0
2021-07-28 11:33:06 GMT 35.343624 -81.988335 37,000 170 459 64
2021-07-28 11:33:03 GMT 35.349861 -81.989563 37,000 170 459 64
2021-07-28 11:32:57 GMT 35.371090 -81.993828 37,000 170 461 0
2021-07-28 11:32:54 GMT 35.371090 -81.993828 37,000 170 460 0
2021-07-28 11:32:49 GMT 35.380646 -81.995712 37,000 170 461 0
2021-07-28 11:32:45 GMT 35.387466 -81.997086 37,000 170 461 0
2021-07-28 11:32:42 GMT 35.394318 -81.998444 37,000 170 461 0
2021-07-28 11:32:39 GMT 35.403900 -82.000404 37,000 170 461 0
2021-07-28 11:32:36 GMT 35.409531 -82.001495 37,000 170 461 0
2021-07-28 11:32:32 GMT 35.417267 -82.003036 37,000 170 461 0
2021-07-28 11:32:29 GMT 35.421040 -82.003822 37,000 170 462 0
2021-07-28 11:32:25 GMT 35.431000 -82.005814 37,000 170 461 0
2021-07-28 11:32:22 GMT 35.437317 -82.007050 37,000 170 461 -64
2021-07-28 11:32:19 GMT 35.442627 -82.008133 37,000 170 461 0
2021-07-28 11:32:14 GMT 35.454140 -82.010429 37,000 170 461 0
2021-07-28 11:32:10 GMT 35.465172 -82.012589 37,000 170 462 0
2021-07-28 11:32:05 GMT 35.473389 -82.014259 37,000 170 462 0
2021-07-28 11:32:02 GMT 35.479694 -82.015511 37,000 170 462 0
2021-07-28 11:31:59 GMT 35.486073 -82.016792 37,000 170 462 0
2021-07-28 11:31:55 GMT 35.496220 -82.018845 37,000 170 462 0
2021-07-28 11:31:52 GMT 35.499760 -82.019547 37,000 170 462 0
2021-07-28 11:31:47 GMT 35.510700 -82.021706 37,000 170 462 0
2021-07-28 11:31:43 GMT 35.521362 -82.023872 37,000 170 462 0
2021-07-28 11:31:36 GMT 35.535965 -82.026787 37,000 170 462 64
2021-07-28 11:31:33 GMT 35.541283 -82.027901 37,000 170 462 64
2021-07-28 11:31:29 GMT 35.548141 -82.029243 37,000 170 462 64
2021-07-28 11:31:26 GMT 35.557903 -82.031235 37,000 170 462 -64
2021-07-28 11:31:22 GMT 35.562325 -82.032104 37,000 170 462 -64
2021-07-28 11:31:19 GMT 35.571167 -82.033882 37,000 170 462 0
2021-07-28 11:31:12 GMT 35.586365 -82.036919 37,000 170 462 64
2021-07-28 11:31:05 GMT 35.602478 -82.040176 37,000 170 463 64
2021-07-28 11:31:01 GMT 35.608459 -82.041397 37,000 170 464 0
2021-07-28 11:30:56 GMT 35.617310 -82.043205 37,000 170 463 0
2021-07-28 11:30:51 GMT 35.630264 -82.045837 37,000 170 463 0
2021-07-28 11:30:46 GMT 35.638641 -82.047501 37,000 170 463 0
2021-07-28 11:30:40 GMT 35.652077 -82.050278 37,000 170 464 0
2021-07-28 11:30:34 GMT 35.664322 -82.052734 37,000 170 464 0
2021-07-28 11:30:29 GMT 35.675632 -82.055016 37,000 170 464 0
2021-07-28 11:30:25 GMT 35.683319 -82.056602 37,000 170 464 -64
2021-07-28 11:30:20 GMT 35.696209 -82.059166 37,000 170 464 0
2021-07-28 11:30:09 GMT 35.718613 -82.063690 37,000 170 464 0
2021-07-28 11:30:01 GMT 35.736740 -82.067299 37,000 170 463 0
2021-07-28 11:29:58 GMT 35.740814 -82.068153 37,000 170 465 0
2021-07-28 11:29:54 GMT 35.752625 -82.070503 37,000 170 464 64
2021-07-28 11:29:48 GMT 35.762405 -82.072426 37,000 170 465 0
2021-07-28 11:29:44 GMT 35.771065 -82.074181 37,000 170 465 0
2021-07-28 11:29:40 GMT 35.781555 -82.076286 37,000 170 465 -64
2021-07-28 11:29:37 GMT 35.791260 -82.078232 37,000 170 465 0
2021-07-28 11:29:30 GMT 35.801559 -82.080292 37,000 170 465 0
2021-07-28 11:29:26 GMT 35.811844 -82.082367 37,000 170 466 64
2021-07-28 11:29:17 GMT 35.829952 -82.085983 37,000 170 466 0
2021-07-28 11:29:12 GMT 35.837677 -82.087608 37,000 170 466 0
2021-07-28 11:29:08 GMT 35.848667 -82.089783 37,000 170 467 0
2021-07-28 11:29:05 GMT 35.854210 -82.090897 37,000 170 467 0
2021-07-28 11:28:59 GMT 35.867893 -82.093643 37,000 170 468 -64
2021-07-28 11:28:55 GMT 35.874504 -82.094986 37,000 170 468 -64
2021-07-28 11:28:47 GMT 35.895172 -82.099075 37,000 170 470 0
2021-07-28 11:28:44 GMT 35.898479 -82.099716 37,000 170 470 0
2021-07-28 11:28:38 GMT 35.910690 -82.102203 37,000 170 471 -64
2021-07-28 11:28:35 GMT 35.920532 -82.104149 37,000 170 471 -64
2021-07-28 11:28:28 GMT 35.934742 -82.106964 37,000 170 472 0
2021-07-28 11:28:24 GMT 35.942413 -82.108498 37,000 170 472 64
2021-07-28 11:28:19 GMT 35.952850 -82.110619 37,000 170 473 64
2021-07-28 11:28:16 GMT 35.961548 -82.112328 37,000 170 473 64
2021-07-28 11:28:13 GMT 35.966213 -82.113274 37,000 170 473 64
2021-07-28 11:28:05 GMT 35.994186 -82.118973 37,000 170 474 64
2021-07-28 11:27:55 GMT 36.006107 -82.121346 37,000 170 475 128
2021-07-28 11:27:52 GMT 36.010113 -82.122162 37,000 170 475 64
2021-07-28 11:27:46 GMT 36.024124 -82.125023 37,000 170 475 -64
2021-07-28 11:27:43 GMT 36.032131 -82.126663 37,000 170 475 -64
2021-07-28 11:27:38 GMT 36.043167 -82.128922 37,000 170 475 128
2021-07-28 11:27:34 GMT 36.049896 -82.130302 36,975 170 475 256
2021-07-28 11:27:31 GMT 36.055573 -82.131439 36,975 170 475 192
2021-07-28 11:27:26 GMT 36.069031 -82.134193 37,000 170 475 -576
2021-07-28 11:27:22 GMT 36.079102 -82.136253 37,075 170 474 -896
2021-07-28 11:27:15 GMT 36.091808 -82.138817 37,200 170 473 -960
2021-07-28 11:27:11 GMT 36.100376 -82.140511 37,225 170 473 -960
2021-07-28 11:27:04 GMT 36.113983 -82.143288 37,325 170 472 -960
2021-07-28 11:27:01 GMT 36.124008 -82.145287 37,400 170 472 -960
2021-07-28 11:26:55 GMT 36.136917 -82.147926 37,500 170 471 -960
2021-07-28 11:26:52 GMT 36.141201 -82.148811 37,525 170 470 -960
2021-07-28 11:26:49 GMT 36.147720 -82.150093 37,575 170 470 -960
2021-07-28 11:26:44 GMT 36.158798 -82.152313 37,675 170 469 -960
2021-07-28 11:26:41 GMT 36.164478 -82.153427 37,700 170 469 -896
2021-07-28 11:26:38 GMT 36.171707 -82.154846 37,750 170 470 -896
2021-07-28 11:26:33 GMT 36.183334 -82.157188 37,850 170 470 -896
2021-07-28 11:26:30 GMT 36.190456 -82.158569 37,875 170 470 -832
2021-07-28 11:26:24 GMT 36.203568 -82.161201 37,975 170 469 -896
2021-07-28 11:26:21 GMT 36.207916 -82.162109 38,025 170 469 -960
2021-07-28 11:26:18 GMT 36.213123 -82.163124 38,050 170 468 -960
2021-07-28 11:26:11 GMT 36.236298 -82.167831 38,200 170 466 -960
2021-07-28 11:26:07 GMT 36.236298 -82.167831 38,225 170 466 -960
2021-07-28 11:26:04 GMT 36.245773 -82.169838 38,275 170 466 -960
2021-07-28 11:26:00 GMT 36.254150 -82.171555 38,350 170 466 -960
2021-07-28 11:25:56 GMT 36.259769 -82.172707 38,400 170 466 -1024
2021-07-28 11:25:53 GMT 36.269035 -82.174637 38,450 170 466 -1024
2021-07-28 11:25:49 GMT 36.276249 -82.176155 38,625 170 467 -1152
2021-07-28 11:25:42 GMT 36.290863 -82.179108 38,650 170 467 -1152
2021-07-28 11:25:39 GMT 36.298737 -82.180763 38,700 170 467 -1152
2021-07-28 11:25:30 GMT 36.321899 -82.185455 38,925 170 468 -1088
2021-07-28 11:25:27 GMT 36.321899 -82.185455 38,925 170 469 -1088
2021-07-28 11:25:22 GMT 36.334808 -82.188087 39,000 170 470 -320
2021-07-28 11:25:18 GMT 36.343140 -82.189812 39,000 170 470 64
2021-07-28 11:25:11 GMT 36.357330 -82.192673 39,000 170 470 64
2021-07-28 11:25:08 GMT 36.363907 -82.193977 39,000 170 470 64
2021-07-28 11:25:05 GMT 36.369450 -82.195152 39,000 170 470 -128
2021-07-28 11:25:00 GMT 36.380768 -82.197472 39,000 170 470 -64
2021-07-28 11:24:56 GMT 36.388069 -82.198944 39,000 170 470 -64
2021-07-28 11:24:51 GMT 36.408096 -82.203026 39,000 170 469 0
2021-07-28 11:24:47 GMT 36.408096 -82.203026 39,000 170 469 0
2021-07-28 11:24:44 GMT 36.415070 -82.204498 39,000 170 469 0
2021-07-28 11:24:39 GMT 36.426224 -82.206802 39,000 170 469 -64
2021-07-28 11:24:35 GMT 36.433552 -82.208298 39,000 170 469 0
2021-07-28 11:24:32 GMT 36.441010 -82.209831 39,000 170 469 64
2021-07-28 11:24:30 GMT 36.445328 -82.210693 39,000 170 469 64
2021-07-28 11:24:26 GMT 36.455429 -82.212799 39,000 170 469 0
2021-07-28 11:24:22 GMT 36.462040 -82.214142 39,000 170 469 0
2021-07-28 11:24:19 GMT 36.469803 -82.215729 39,000 170 469 -64
2021-07-28 11:24:16 GMT 36.475166 -82.216888 39,000 170 469 -64
2021-07-28 11:24:13 GMT 36.492111 -82.220337 39,000 170 469 0
2021-07-28 11:24:08 GMT 36.492111 -82.220337 39,000 170 469 192
2021-07-28 11:24:03 GMT 36.502773 -82.222557 38,975 170 469 128
2021-07-28 11:23:56 GMT 36.518929 -82.225830 39,000 170 469 -192
2021-07-28 11:23:53 GMT 36.523163 -82.226707 39,000 170 469 -192
2021-07-28 11:23:48 GMT 36.536476 -82.229393 39,000 170 469 0
2021-07-28 11:23:44 GMT 36.545883 -82.231354 39,000 170 469 64
2021-07-28 11:23:36 GMT 36.561722 -82.234550 39,000 170 470 0
2021-07-28 11:23:32 GMT 36.567947 -82.235825 39,000 170 470 64
2021-07-28 11:23:26 GMT 36.580902 -82.238441 39,000 170 469 -128
2021-07-28 11:23:23 GMT 36.589966 -82.240334 39,025 170 469 -128
2021-07-28 11:23:16 GMT 36.603466 -82.243126 39,000 170 469 0
2021-07-28 11:23:12 GMT 36.612545 -82.244995 39,000 170 469 0
2021-07-28 11:23:05 GMT 36.628830 -82.248344 39,000 170 468 64
2021-07-28 11:23:02 GMT 36.645309 -82.251778 39,000 170 468 64
2021-07-28 11:22:56 GMT 36.645309 -82.251778 39,000 170 468 0
2021-07-28 11:22:53 GMT 36.653000 -82.253349 39,000 170 468 0
2021-07-28 11:22:50 GMT 36.657669 -82.254356 39,000 170 468 -64
2021-07-28 11:22:45 GMT 36.669292 -82.256744 39,000 170 468 -64
2021-07-28 11:22:40 GMT 36.679550 -82.258873 39,000 170 467 64
2021-07-28 11:22:33 GMT 36.697407 -82.262589 39,000 170 467 64
2021-07-28 11:22:28 GMT 36.705368 -82.264221 39,000 170 467 64
2021-07-28 11:22:25 GMT 36.711746 -82.265511 39,000 170 467 64
2021-07-28 11:22:22 GMT 36.719055 -82.267029 39,000 170 466 0
2021-07-28 11:22:19 GMT 36.723850 -82.268021 39,000 170 466 64
2021-07-28 11:22:14 GMT 36.736000 -82.270531 39,000 170 466 0
2021-07-28 11:22:09 GMT 36.748489 -82.273064 39,000 170 466 0
2021-07-28 11:22:05 GMT 36.757004 -82.274834 39,000 170 465 64
2021-07-28 11:22:02 GMT 36.762131 -82.275864 39,000 170 465 64
2021-07-28 11:21:59 GMT 36.768219 -82.277122 39,000 170 465 0
2021-07-28 11:21:54 GMT 36.778038 -82.279121 39,000 170 465 -64
2021-07-28 11:21:49 GMT 36.791073 -82.281754 39,000 170 465 0
2021-07-28 11:21:44 GMT 36.800198 -82.283623 39,000 170 465 64
2021-07-28 11:21:41 GMT 36.807224 -82.285088 39,000 170 465 64
2021-07-28 11:21:37 GMT 36.813416 -82.286308 39,000 170 464 0
2021-07-28 11:21:33 GMT 36.822510 -82.288223 39,000 170 464 0
2021-07-28 11:21:26 GMT 36.838348 -82.291489 39,000 170 464 0
2021-07-28 11:21:17 GMT 36.863972 -82.296791 39,000 170 464 0
2021-07-28 11:21:07 GMT 36.879101 -82.299957 39,000 170 464 0
2021-07-28 11:21:01 GMT 36.892368 -82.302704 39,000 170 464 0
2021-07-28 11:20:56 GMT 36.901169 -82.304558 39,000 170 464 0
2021-07-28 11:20:51 GMT 36.913551 -82.307121 39,000 170 464 0
2021-07-28 11:20:48 GMT 36.917320 -82.307899 39,000 170 464 0
2021-07-28 11:20:45 GMT 36.924042 -82.309334 39,000 170 464 0
2021-07-28 11:20:42 GMT 36.930771 -82.310738 39,000 170 464 0
2021-07-28 11:20:38 GMT 36.938736 -82.312378 39,000 170 463 0
2021-07-28 11:20:34 GMT 36.947021 -82.314125 39,000 170 463 0
2021-07-28 11:20:31 GMT 36.953430 -82.315475 39,000 170 463 64
2021-07-28 11:20:27 GMT 36.961807 -82.317169 39,000 170 463 64
2021-07-28 11:20:24 GMT 36.968903 -82.318687 39,000 170 463 64
2021-07-28 11:20:18 GMT 36.984169 -82.321869 39,000 170 463 0
2021-07-28 11:20:12 GMT 36.993622 -82.323891 39,000 170 463 0
2021-07-28 11:20:07 GMT 37.004978 -82.326225 39,000 170 463 -128
2021-07-28 11:20:03 GMT 37.012661 -82.327843 39,000 170 463 -64
2021-07-28 11:19:57 GMT 37.026764 -82.330826 39,000 170 462 128
2021-07-28 11:19:54 GMT 37.033562 -82.332260 39,000 170 461 128
2021-07-28 11:19:46 GMT 37.049515 -82.335632 38,975 170 461 0
2021-07-28 11:19:43 GMT 37.055630 -82.336914 38,975 170 461 -64
2021-07-28 11:19:36 GMT 37.079182 -82.341934 39,000 170 464 -64
2021-07-28 11:19:33 GMT 37.079182 -82.341934 39,000 170 467 -64
2021-07-28 11:19:29 GMT 37.084492 -82.343010 39,000 170 466 -64
2021-07-28 11:19:26 GMT 37.092777 -82.344795 39,000 170 467 -64
2021-07-28 11:19:21 GMT 37.101154 -82.346588 39,000 170 468 -128
2021-07-28 11:19:18 GMT 37.109802 -82.348373 39,000 170 469 -128
2021-07-28 11:19:15 GMT 37.117355 -82.350006 39,000 170 470 0
2021-07-28 11:19:12 GMT 37.124039 -82.351357 39,000 170 471 0
2021-07-28 11:19:08 GMT 37.129349 -82.352463 39,000 170 471 -64
2021-07-28 11:19:04 GMT 37.137680 -82.354218 39,000 170 471 -64
2021-07-28 11:19:01 GMT 37.145050 -82.355797 39,025 170 471 -64
2021-07-28 11:18:58 GMT 37.150223 -82.356850 39,025 170 471 64
2021-07-28 11:18:55 GMT 37.164047 -82.359787 39,000 170 471 64
2021-07-28 11:18:48 GMT 37.175594 -82.362175 39,000 170 471 64
2021-07-28 11:18:44 GMT 37.183182 -82.363724 39,000 170 472 0
2021-07-28 11:18:39 GMT 37.191605 -82.365494 39,000 170 472 0
2021-07-28 11:18:35 GMT 37.200172 -82.367249 39,000 170 472 0
2021-07-28 11:18:32 GMT 37.206757 -82.368652 39,000 170 472 0
2021-07-28 11:18:27 GMT 37.217194 -82.370811 39,000 170 472 0
2021-07-28 11:18:21 GMT 37.233364 -82.374115 39,000 170 472 64
2021-07-28 11:18:18 GMT 37.240162 -82.375549 39,000 170 472 64
2021-07-28 11:18:12 GMT 37.251068 -82.377769 39,000 170 471 64
2021-07-28 11:18:06 GMT 37.262283 -82.380043 39,000 170 471 0
2021-07-28 11:18:03 GMT 37.272747 -82.382118 39,000 170 471 64
2021-07-28 11:17:59 GMT 37.280136 -82.383614 39,000 170 472 64
2021-07-28 11:17:56 GMT 37.284290 -82.384506 39,000 170 472 64
2021-07-28 11:17:52 GMT 37.296444 -82.386955 39,000 170 472 -64
2021-07-28 11:17:47 GMT 37.306137 -82.388985 39,000 170 471 -64
2021-07-28 11:17:36 GMT 37.328568 -82.393600 39,000 170 471 0
2021-07-28 11:17:27 GMT 37.347748 -82.397636 39,000 170 471 0
2021-07-28 11:17:22 GMT 37.359100 -82.400024 39,000 170 471 0
2021-07-28 11:17:15 GMT 37.374371 -82.403191 39,000 170 471 0
2021-07-28 11:17:12 GMT 37.380066 -82.404358 39,000 170 471 0
2021-07-28 11:17:09 GMT 37.387253 -82.405876 39,000 170 471 0
2021-07-28 11:17:05 GMT 37.395271 -82.407555 39,000 170 471 0
2021-07-28 11:17:01 GMT 37.405701 -82.409737 39,000 170 471 0
2021-07-28 11:16:55 GMT 37.417969 -82.412247 39,000 170 471 0
2021-07-28 11:16:52 GMT 37.423344 -82.413345 39,000 170 471 0
2021-07-28 11:16:45 GMT 37.437775 -82.416389 39,000 170 471 0
2021-07-28 11:16:41 GMT 37.445316 -82.417938 39,000 170 471 0
2021-07-28 11:16:32 GMT 37.468033 -82.422714 39,000 170 471 -64
2021-07-28 11:16:24 GMT 37.484558 -82.426239 39,000 170 471 0
2021-07-28 11:16:20 GMT 37.491219 -82.427612 39,000 170 471 64
2021-07-28 11:16:13 GMT 37.506912 -82.430946 39,000 170 471 0
2021-07-28 11:16:10 GMT 37.512398 -82.432152 39,000 170 471 -64
2021-07-28 11:16:04 GMT 37.527328 -82.435272 39,000 170 471 0
2021-07-28 11:16:01 GMT 37.534416 -82.436806 39,000 170 471 0
2021-07-28 11:15:53 GMT 37.550850 -82.440269 39,000 170 471 0
2021-07-28 11:15:50 GMT 37.556671 -82.441521 39,000 170 471 0
2021-07-28 11:15:42 GMT 37.573151 -82.444992 39,000 170 471 -64
2021-07-28 11:15:39 GMT 37.578827 -82.446182 39,000 170 471 -64
2021-07-28 11:15:30 GMT 37.600891 -82.450874 39,000 170 471 0
2021-07-28 11:15:22 GMT 37.618397 -82.454605 39,000 170 470 0
2021-07-28 11:15:15 GMT 37.631527 -82.457466 39,000 170 470 0
2021-07-28 11:15:11 GMT 37.639999 -82.459259 39,000 170 470 0
2021-07-28 11:15:07 GMT 37.648544 -82.461098 39,000 170 470 0
2021-07-28 11:15:00 GMT 37.663040 -82.464218 39,000 170 470 0
2021-07-28 11:14:49 GMT 37.686272 -82.469170 39,000 170 470 0
2021-07-28 11:14:44 GMT 37.697250 -82.471504 39,000 170 470 -64
2021-07-28 11:14:40 GMT 37.706520 -82.473473 39,000 170 470 -64
2021-07-28 11:14:36 GMT 37.714325 -82.475182 39,000 170 470 -64
2021-07-28 11:14:33 GMT 37.720093 -82.476410 39,025 170 469 -64
2021-07-28 11:14:28 GMT 37.734264 -82.479439 39,025 170 469 0
2021-07-28 11:14:23 GMT 37.742981 -82.481262 39,025 170 468 0
2021-07-28 11:14:19 GMT 37.751221 -82.483070 39,025 170 466 0
2021-07-28 11:14:08 GMT 37.792175 -82.491737 39,000 170 462 64
2021-07-28 11:14:00 GMT 37.792175 -82.491737 39,000 170 461 64
2021-07-28 11:13:57 GMT 37.798874 -82.493179 39,000 170 461 0
2021-07-28 11:13:52 GMT 37.807259 -82.494904 39,000 170 461 0
2021-07-28 11:13:47 GMT 37.828396 -82.499382 39,000 170 461 -64
2021-07-28 11:13:43 GMT 37.828396 -82.499382 39,000 170 461 0
2021-07-28 11:13:35 GMT 37.844330 -82.502708 39,000 170 461 0
2021-07-28 11:13:31 GMT 37.851562 -82.504227 39,000 170 461 64
2021-07-28 11:13:27 GMT 37.862938 -82.506607 39,000 170 461 64
2021-07-28 11:13:16 GMT 37.882767 -82.510849 39,000 170 461 64
2021-07-28 11:13:05 GMT 37.907066 -82.515923 39,000 170 462 0
2021-07-28 11:12:56 GMT 37.946777 -82.524269 38,975 170 464 -64
2021-07-28 11:12:44 GMT 37.950989 -82.525146 38,975 170 464 -64
2021-07-28 11:12:35 GMT 37.991608 -82.533714 39,000 170 469 0
2021-07-28 11:12:25 GMT 38.004177 -82.536400 39,000 170 475 64
2021-07-28 11:12:19 GMT 38.004177 -82.536400 39,000 170 474 0
2021-07-28 11:12:15 GMT 38.014233 -82.538490 39,000 170 475 64
2021-07-28 11:12:09 GMT 38.025543 -82.540878 39,000 170 477 64
2021-07-28 11:12:05 GMT 38.037003 -82.543266 38,975 170 479 0
2021-07-28 11:12:00 GMT 38.048401 -82.545601 39,000 170 481 -64
2021-07-28 11:11:54 GMT 38.059666 -82.547989 39,000 170 482 128
2021-07-28 11:11:48 GMT 38.071259 -82.550430 39,000 170 482 384
2021-07-28 11:11:44 GMT 38.082104 -82.552704 38,950 170 482 960
2021-07-28 11:11:38 GMT 38.094536 -82.555389 38,800 170 483 1792
2021-07-28 11:11:34 GMT 38.105026 -82.557640 38,650 170 485 2112
2021-07-28 11:11:28 GMT 38.118881 -82.560585 38,425 170 487 2176
2021-07-28 11:11:23 GMT 38.128098 -82.562546 38,250 170 490 2368
2021-07-28 11:11:18 GMT 38.139271 -82.564941 38,075 170 502 1728
2021-07-28 11:11:12 GMT 38.176666 -82.573067 37,425 170 504 1984
2021-07-28 11:11:02 GMT 38.176666 -82.573067 37,475 170 501 1984
2021-07-28 11:10:59 GMT 38.190216 -82.575989 37,300 170 502 1728
2021-07-28 11:10:48 GMT 38.207474 -82.579727 36,950 170 507 1920
2021-07-28 11:10:45 GMT 38.213196 -82.580956 36,950 170 507 1920
2021-07-28 11:10:41 GMT 38.222691 -82.582977 36,825 170 507 1856
2021-07-28 11:10:36 GMT 38.234238 -82.585480 36,675 170 508 1664
2021-07-28 11:10:32 GMT 38.246246 -82.588081 36,550 170 509 1408
2021-07-28 11:10:24 GMT 38.262867 -82.591690 36,375 170 509 1408
2021-07-28 11:10:20 GMT 38.271881 -82.593636 36,300 170 508 1344
2021-07-28 11:10:16 GMT 38.281128 -82.595627 36,200 170 508 1216
2021-07-28 11:10:10 GMT 38.296150 -82.598915 36,100 170 507 1088
2021-07-28 11:10:05 GMT 38.306255 -82.601067 36,000 170 507 1088
2021-07-28 11:10:00 GMT 38.319149 -82.603874 35,925 170 506 1024
2021-07-28 11:09:46 GMT 38.353592 -82.611282 35,650 170 503 1152
2021-07-28 11:09:40 GMT 38.367279 -82.614265 35,525 170 502 1216
2021-07-28 11:09:35 GMT 38.376801 -82.616310 35,450 170 502 1472
2021-07-28 11:09:29 GMT 38.390854 -82.619347 35,275 170 502 1664
2021-07-28 11:09:18 GMT 38.415710 -82.624710 34,975 170 503 1728
2021-07-28 11:09:12 GMT 38.431503 -82.628113 34,750 170 504 1984
2021-07-28 11:09:08 GMT 38.440510 -82.630066 34,600 170 504 2048
2021-07-28 11:09:02 GMT 38.452560 -82.632713 34,425 170 505 2176
2021-07-28 11:08:58 GMT 38.461739 -82.634705 33,500 170 512 2240
2021-07-28 11:08:54 GMT 38.473297 -82.637192 34,075 170 508 2240
2021-07-28 11:08:47 GMT 38.486736 -82.640076 33,850 170 509 2240
2021-07-28 11:08:41 GMT 38.509552 -82.645073 33,600 170 510 2240
2021-07-28 11:08:38 GMT 38.509552 -82.645073 33,500 170 512 2176
2021-07-28 11:08:31 GMT 38.526352 -82.648712 33,225 170 513 2112
2021-07-28 11:08:27 GMT 38.533630 -82.650269 33,125 170 514 2176
2021-07-28 11:08:23 GMT 38.542923 -82.652298 32,950 170 515 2048
2021-07-28 11:08:15 GMT 38.563038 -82.656677 32,675 170 516 2112
2021-07-28 11:08:12 GMT 38.569134 -82.658020 32,600 170 516 2112
2021-07-28 11:08:02 GMT 38.607399 -82.666382 31,925 170 519 2368
2021-07-28 11:07:55 GMT 38.607399 -82.666382 32,000 170 519 2304
2021-07-28 11:07:46 GMT 38.648117 -82.675346 31,450 170 521 2304
2021-07-28 11:07:39 GMT 38.648117 -82.675346 31,375 170 522 2304
2021-07-28 11:07:35 GMT 38.656494 -82.677132 31,150 170 522 1664
2021-07-28 11:07:32 GMT 38.665192 -82.679047 31,150 170 522 1344
2021-07-28 11:07:28 GMT 38.671364 -82.680420 31,100 170 522 1152
2021-07-28 11:07:24 GMT 38.682449 -82.682808 31,050 170 519 512
2021-07-28 11:07:20 GMT 38.692776 -82.685120 31,025 170 518 512
2021-07-28 11:07:15 GMT 38.705292 -82.687820 31,000 170 517 128
2021-07-28 11:07:09 GMT 38.718006 -82.690613 31,000 170 517 0
2021-07-28 11:07:04 GMT 38.729694 -82.693176 31,000 170 517 0
2021-07-28 11:07:01 GMT 38.737885 -82.694984 31,000 170 517 0
2021-07-28 11:06:58 GMT 38.742264 -82.695923 31,000 170 517 0
2021-07-28 11:06:53 GMT 38.755188 -82.698746 31,000 170 517 -64
2021-07-28 11:06:50 GMT 38.762146 -82.700241 31,000 170 518 -64
2021-07-28 11:06:47 GMT 38.770660 -82.702087 31,000 170 518 -64
2021-07-28 11:06:44 GMT 38.777874 -82.703613 31,000 170 517 0
2021-07-28 11:06:40 GMT 38.786774 -82.705559 31,000 170 517 192
2021-07-28 11:06:37 GMT 38.792770 -82.706848 30,975 170 517 384
2021-07-28 11:06:32 GMT 38.804672 -82.709435 30,925 170 516 1024
2021-07-28 11:06:28 GMT 38.815933 -82.711884 30,800 170 516 1920
2021-07-28 11:06:22 GMT 38.827919 -82.714478 30,625 170 516 2048
2021-07-28 11:06:17 GMT 38.840954 -82.717285 30,450 170 516 1472
2021-07-28 11:06:13 GMT 38.851475 -82.719543 30,350 170 515 1472
2021-07-28 11:06:07 GMT 38.862740 -82.721985 30,225 170 514 1664
2021-07-28 11:06:02 GMT 38.875633 -82.724731 30,075 170 514 1536
2021-07-28 11:05:57 GMT 38.888481 -82.727539 29,950 170 512 1216
2021-07-28 11:05:53 GMT 38.895309 -82.728958 29,900 170 512 1216
2021-07-28 11:05:48 GMT 38.908585 -82.731827 29,675 170 484 0
2021-07-28 11:05:45 GMT 38.913986 -82.732964 29,675 170 508 1536
2021-07-28 11:05:42 GMT 38.924057 -82.735107 29,575 170 508 1536
2021-07-28 11:05:39 GMT 38.928051 -82.735962 29,525 170 507 1536
2021-07-28 11:05:36 GMT 38.938339 -82.738159 29,400 170 507 1728
2021-07-28 11:05:31 GMT 38.949417 -82.740540 29,250 170 506 1792
2021-07-28 11:05:28 GMT 38.957424 -82.742249 29,150 170 506 1536
2021-07-28 11:05:24 GMT 38.962555 -82.743355 29,125 170 505 1280
2021-07-28 11:05:20 GMT 38.972717 -82.745499 28,650 170 503 1600
2021-07-28 11:05:17 GMT 38.980286 -82.747131 28,925 170 503 1728
2021-07-28 11:05:13 GMT 38.992172 -82.749680 28,775 170 502 1728
2021-07-28 11:05:09 GMT 38.998306 -82.750992 28,725 170 501 1472
2021-07-28 11:05:04 GMT 39.009983 -82.753479 28,600 170 499 1536
2021-07-28 11:04:59 GMT 39.021530 -82.755981 28,450 170 498 1536
2021-07-28 11:04:56 GMT 39.027100 -82.757141 28,400 170 497 1408
2021-07-28 11:04:53 GMT 39.033966 -82.758636 28,325 170 496 1344
2021-07-28 11:04:50 GMT 39.044312 -82.760902 28,225 170 486 1856
2021-07-28 11:04:47 GMT 39.050159 -82.762146 28,150 170 493 1536
2021-07-28 11:04:38 GMT 39.067841 -82.765984 27,925 170 492 1728
2021-07-28 11:04:32 GMT 39.082993 -82.769264 27,800 170 490 1792
2021-07-28 11:04:28 GMT 39.097504 -82.772461 27,125 170 486 1856
2021-07-28 11:04:25 GMT 39.097504 -82.772461 27,550 170 489 1920
2021-07-28 11:04:22 GMT 39.106674 -82.774475 27,025 170 484 1984
2021-07-28 11:04:19 GMT 39.112400 -82.775757 27,325 170 488 1920
2021-07-28 11:04:16 GMT 39.119148 -82.777222 27,225 170 487 1856
2021-07-28 11:04:12 GMT 39.127296 -82.779053 27,025 170 484 1984
2021-07-28 11:04:08 GMT 39.135906 -82.781006 26,925 170 485 1984
2021-07-28 11:04:05 GMT 39.141819 -82.782349 26,900 170 485 1984
2021-07-28 11:03:59 GMT 39.156509 -82.785683 26,700 169 484 1920
2021-07-28 11:03:56 GMT 39.161316 -82.786758 26,625 169 483 1792
2021-07-28 11:03:52 GMT 39.172806 -82.789383 26,475 169 481 1792
2021-07-28 11:03:48 GMT 39.181915 -82.791473 26,275 169 479 2048
2021-07-28 11:03:45 GMT 39.187500 -82.792793 26,250 169 479 2048
2021-07-28 11:03:41 GMT 39.195450 -82.794617 26,050 169 478 1792
2021-07-28 11:03:37 GMT 39.204151 -82.796631 26,000 169 478 1856
2021-07-28 11:03:34 GMT 39.210068 -82.797981 25,925 169 477 1728
2021-07-28 11:03:29 GMT 39.221611 -82.800720 25,775 169 475 1792
2021-07-28 11:03:26 GMT 39.227371 -82.802048 25,700 169 474 1856
2021-07-28 11:03:20 GMT 39.240974 -82.805176 25,400 169 472 1984
2021-07-28 11:03:16 GMT 39.249401 -82.807068 25,350 169 471 1920
2021-07-28 11:03:09 GMT 39.265789 -82.810791 25,100 169 469 2048
2021-07-28 11:03:06 GMT 39.271004 -82.812012 24,975 169 468 2176
2021-07-28 11:03:02 GMT 39.281197 -82.814392 24,850 169 467 2112
2021-07-28 11:02:59 GMT 39.285507 -82.815361 24,750 169 466 1984
2021-07-28 11:02:56 GMT 39.293255 -82.817139 24,650 169 465 2048
2021-07-28 11:02:51 GMT 39.304276 -82.819717 24,375 169 464 2432
2021-07-28 11:02:48 GMT 39.308849 -82.820801 22,975 169 458 2560
2021-07-28 11:02:44 GMT 39.316498 -82.822586 24,225 169 463 2368
2021-07-28 11:02:40 GMT 39.324909 -82.824585 24,075 169 462 2304
2021-07-28 11:02:37 GMT 39.331383 -82.826111 23,950 169 462 2368
2021-07-28 11:02:34 GMT 39.338455 -82.827698 23,825 169 461 2432
2021-07-28 11:02:31 GMT 39.345703 -82.829391 23,675 170 460 2496
2021-07-28 11:02:28 GMT 39.351425 -82.830704 23,550 170 459 2624
2021-07-28 11:02:25 GMT 39.359962 -82.832581 23,375 170 459 2624
2021-07-28 11:02:21 GMT 39.364883 -82.833687 23,275 170 458 2624
2021-07-28 11:02:18 GMT 39.373581 -82.835663 23,100 169 459 2560
2021-07-28 11:02:13 GMT 39.381546 -82.837448 22,950 169 458 2560
2021-07-28 11:02:09 GMT 39.389877 -82.839363 22,775 169 457 2560
2021-07-28 11:02:05 GMT 39.399487 -82.841553 22,575 169 456 2496
2021-07-28 11:02:02 GMT 39.407272 -82.843361 22,425 169 455 2368
2021-07-28 11:01:58 GMT 39.415649 -82.845329 22,275 169 454 2368
2021-07-28 11:01:54 GMT 39.423935 -82.847244 21,975 169 452 2432
2021-07-28 11:01:51 GMT 39.428349 -82.848267 22,025 169 452 2432
2021-07-28 11:01:47 GMT 39.437939 -82.850525 21,825 169 451 2496
2021-07-28 11:01:41 GMT 39.447327 -82.852676 21,625 169 450 2624
2021-07-28 11:01:38 GMT 39.457031 -82.854942 21,400 169 449 2496
2021-07-28 11:01:35 GMT 39.461262 -82.855957 21,400 169 449 2496
2021-07-28 11:01:32 GMT 39.466568 -82.857178 21,250 169 447 2240
2021-07-28 11:01:28 GMT 39.474064 -82.858948 21,100 169 446 2560
2021-07-28 11:01:25 GMT 39.483189 -82.861084 20,900 169 445 2880
2021-07-28 11:01:19 GMT 39.492172 -82.863159 20,675 169 444 2944
2021-07-28 11:01:16 GMT 39.499435 -82.864807 20,500 169 443 2816
2021-07-28 11:01:12 GMT 39.507202 -82.866646 20,325 169 442 2560
2021-07-28 11:01:09 GMT 39.515404 -82.868530 20,175 169 439 2240
2021-07-28 11:01:06 GMT 39.520290 -82.869629 19,825 170 438 2304
2021-07-28 11:01:03 GMT 39.525742 -82.870888 19,975 170 438 2368
2021-07-28 11:01:00 GMT 39.532059 -82.872322 19,850 170 436 2560
2021-07-28 11:00:57 GMT 39.538559 -82.873756 19,700 170 435 2560
2021-07-28 11:00:54 GMT 39.543594 -82.874886 19,600 170 435 2560
2021-07-28 11:00:50 GMT 39.552887 -82.876976 19,400 170 433 2496
2021-07-28 11:00:44 GMT 39.563782 -82.879364 19,175 170 430 2304
2021-07-28 11:00:39 GMT 39.572941 -82.881348 19,000 170 427 2304
2021-07-28 11:00:33 GMT 39.585526 -82.884087 18,675 170 424 2368
2021-07-28 11:00:29 GMT 39.592896 -82.885635 18,600 170 422 2432
2021-07-28 11:00:26 GMT 39.599808 -82.887070 18,400 170 420 2624
2021-07-28 11:00:22 GMT 39.607773 -82.888741 18,250 171 418 2624
2021-07-28 11:00:19 GMT 39.613113 -82.889771 18,150 171 417 2560
2021-07-28 11:00:15 GMT 39.618576 -82.890831 17,975 171 415 2496
2021-07-28 11:00:12 GMT 39.625263 -82.892151 17,875 170 414 2496
2021-07-28 11:00:08 GMT 39.632385 -82.893738 17,725 169 414 2560
2021-07-28 11:00:05 GMT 39.639771 -82.895546 17,550 167 412 2560
2021-07-28 11:00:00 GMT 39.649101 -82.898254 17,325 165 409 2816
2021-07-28 10:59:57 GMT 39.652542 -82.899353 17,250 165 409 2816
2021-07-28 10:59:52 GMT 39.664169 -82.903488 16,925 162 408 3136
2021-07-28 10:59:48 GMT 39.670624 -82.906113 16,725 160 408 3136
2021-07-28 10:59:44 GMT 39.676704 -82.908875 16,450 157 407 2880
2021-07-28 10:59:41 GMT 39.681931 -82.911552 16,400 156 407 2816
2021-07-28 10:59:37 GMT 39.688705 -82.915375 16,225 154 406 2944
2021-07-28 10:59:34 GMT 39.695045 -82.919373 16,025 153 405 3200
2021-07-28 10:59:29 GMT 39.704407 -82.925339 15,725 153 404 3520
2021-07-28 10:59:26 GMT 39.706825 -82.926941 15,625 153 404 3584
2021-07-28 10:59:21 GMT 39.717716 -82.933960 15,200 153 404 3584
2021-07-28 10:59:18 GMT 39.721298 -82.936272 12,075 153 398 2688
2021-07-28 10:59:12 GMT 39.730133 -82.942001 14,800 153 403 3392
2021-07-28 10:59:08 GMT 39.739643 -82.948181 14,475 153 403 3456
2021-07-28 10:59:02 GMT 39.747978 -82.953491 14,200 153 402 3456
2021-07-28 10:58:59 GMT 39.753067 -82.956749 14,025 153 402 3456
2021-07-28 10:58:56 GMT 39.758450 -82.960205 13,850 153 401 3456
2021-07-28 10:58:51 GMT 39.765289 -82.964569 13,625 153 400 3200
2021-07-28 10:58:48 GMT 39.771065 -82.968323 13,400 153 398 2752
2021-07-28 10:58:45 GMT 39.777908 -82.972717 13,250 153 396 2496
2021-07-28 10:58:41 GMT 39.781960 -82.975342 13,075 153 393 2560
2021-07-28 10:58:38 GMT 39.788406 -82.979553 12,975 153 391 2688
2021-07-28 10:58:33 GMT 39.796463 -82.984810 12,750 153 389 3200
2021-07-28 10:58:28 GMT 39.804863 -82.990295 12,450 153 387 3072
2021-07-28 10:58:21 GMT 39.815571 -82.997253 12,150 153 382 2752
2021-07-28 10:58:16 GMT 39.822006 -83.001472 11,950 153 379 2816
2021-07-28 10:58:12 GMT 39.829330 -83.006248 11,750 153 377 2880
2021-07-28 10:58:07 GMT 39.844479 -83.016174 11,125 153 365 2560
2021-07-28 10:58:03 GMT 39.844479 -83.016174 11,325 153 369 2432
2021-07-28 10:57:59 GMT 39.850067 -83.019859 11,175 153 365 2560
2021-07-28 10:57:56 GMT 39.863335 -83.028564 11,025 153 362 2304
2021-07-28 10:57:50 GMT 39.863335 -83.028564 10,900 153 355 1152
2021-07-28 10:57:46 GMT 39.869751 -83.032761 10,825 153 346 960
2021-07-28 10:57:41 GMT 39.875702 -83.036636 10,750 153 341 1024
2021-07-28 10:57:38 GMT 39.879364 -83.039024 10,700 153 337 1024
2021-07-28 10:57:35 GMT 39.884033 -83.042068 8,200 153 310 3200
2021-07-28 10:57:31 GMT 39.889076 -83.045349 10,500 153 317 2112
2021-07-28 10:57:28 GMT 39.894104 -83.048523 10,425 153 317 2112
2021-07-28 10:57:25 GMT 39.897949 -83.050964 10,300 153 313 2752
2021-07-28 10:57:21 GMT 39.902939 -83.054131 10,100 153 310 3200
2021-07-28 10:57:18 GMT 39.906162 -83.056213 9,975 153 309 3136
2021-07-28 10:57:14 GMT 39.911423 -83.059570 9,775 153 307 2944
2021-07-28 10:57:11 GMT 39.915798 -83.062439 9,600 153 305 2944
2021-07-28 10:57:07 GMT 39.920639 -83.065613 9,325 152 302 2944
2021-07-28 10:57:04 GMT 39.924957 -83.068481 9,225 152 301 3072
2021-07-28 10:56:58 GMT 39.932373 -83.073547 8,700 152 297 3648
2021-07-28 10:56:53 GMT 39.937454 -83.077026 8,625 152 298 3648
2021-07-28 10:56:49 GMT 39.941757 -83.079956 8,425 152 297 3712
2021-07-28 10:56:45 GMT 39.947918 -83.084045 8,100 154 295 4096
2021-07-28 10:56:40 GMT 39.954857 -83.087914 7,725 163 294 3904
2021-07-28 10:56:35 GMT 39.961514 -83.090034 7,400 171 292 3456
2021-07-28 10:56:30 GMT 39.967392 -83.090637 7,175 175 289 3264
2021-07-28 10:56:27 GMT 39.971615 -83.090408 6,850 191 279 3520
2021-07-28 10:56:24 GMT 39.974945 -83.089783 6,850 191 279 3520
2021-07-28 10:56:20 GMT 39.984463 -83.085854 6,525 203 273 3520
2021-07-28 10:56:16 GMT 39.984463 -83.085854 6,325 209 270 3200
2021-07-28 10:56:13 GMT 39.987579 -83.083557 6,025 218 266 3200
2021-07-28 10:56:09 GMT 39.992752 -83.078369 5,950 226 264 3136
2021-07-28 10:56:04 GMT 39.996414 -83.072998 5,725 235 263 3008
2021-07-28 10:55:57 GMT 40.000031 -83.065002 5,450 246 260 2816
2021-07-28 10:55:53 GMT 40.001778 -83.058136 5,225 257 259 2752
2021-07-28 10:55:47 GMT 40.002663 -83.050026 5,025 270 256 1984
2021-07-28 10:55:42 GMT 40.002430 -83.042595 4,900 276 250 1152
2021-07-28 10:55:38 GMT 40.001873 -83.034790 4,800 276 243 1216
2021-07-28 10:55:35 GMT 40.001587 -83.030579 4,750 276 238 1024
2021-07-28 10:55:32 GMT 40.001312 -83.026855 4,700 276 234 832
2021-07-28 10:55:26 GMT 40.000801 -83.019249 4,625 276 222 1280
2021-07-28 10:55:22 GMT 40.000336 -83.012756 4,475 276 218 2240
2021-07-28 10:55:18 GMT 39.999966 -83.007767 4,325 276 216 2880
2021-07-28 10:55:12 GMT 39.999359 -82.998528 3,975 274 215 2816
2021-07-28 10:55:06 GMT 39.999035 -82.992592 3,750 276 213 2944
2021-07-28 10:55:00 GMT 39.998520 -82.985481 3,475 278 212 3136
2021-07-28 10:54:56 GMT 39.998009 -82.979485 3,225 275 213 3136
2021-07-28 10:54:51 GMT 39.997650 -82.973877 2,950 275 212 2560
2021-07-28 10:54:48 GMT 39.997311 -82.968498 2,850 275 210 2176
2021-07-28 10:54:45 GMT 39.997192 -82.966125 2,650 275 208 0
2021-07-28 10:54:41 GMT 39.996845 -82.959946 2,650 275 202 1472
2021-07-28 10:54:35 GMT 39.996460 -82.953735 2,525 275 195 1536
2021-07-28 10:54:30 GMT 39.996094 -82.947632 2,375 275 189 1664
2021-07-28 10:54:25 GMT 39.995728 -82.941910 2,250 275 183 1600
2021-07-28 10:54:15 GMT 39.995041 -82.930054 1,975 276 168 1280
2021-07-28 10:54:10 GMT 39.994720 -82.925232 1,850 275 165 1728
2021-07-28 10:54:07 GMT 39.994564 -82.922867 1,775 275 162 1984
2021-07-28 10:54:04 GMT 39.994354 -82.920227 1,675 275 160 2368
2021-07-28 10:53:54 GMT 39.993759 -82.910583 1,250 274 161 2944
2021-07-28 10:53:46 GMT 39.993355 -82.902893 925 275 161 2304
2021-07-28 10:53:29 GMT 39.992432 -82.887085 700 275 148 192
2021-07-28 10:53:23 GMT 39.992191 -82.882797 700 275 114 0
2021-07-28 10:53:16 GMT 39.991905 -82.878174 0 272 72
2021-07-28 10:53:04 GMT 39.991734 -82.875000 0 272 25
2021-07-28 10:52:54 GMT 39.991699 -82.873817 0 250 15
2021-07-28 10:52:45 GMT 39.992180 -82.873291 0 188 14
2021-07-28 10:52:35 GMT 39.992832 -82.873230 0 180 12
2021-07-28 10:52:24 GMT 39.993294 -82.873398 0 126 11
2021-07-28 10:52:13 GMT 39.993446 -82.874146 0 92 13
2021-07-28 10:52:03 GMT 39.993484 -82.874878 0 92 16
2021-07-28 10:51:54 GMT 39.993542 -82.875801 0 92 16
2021-07-28 10:51:43 GMT 39.993587 -82.876740 0 92 15
2021-07-28 10:51:33 GMT 39.993633 -82.877502 0 92 11
2021-07-28 10:51:22 GMT 39.993668 -82.878189 0 92 11
2021-07-28 10:51:12 GMT 39.993725 -82.879204 0 92 11
2021-07-28 10:51:00 GMT 39.993748 -82.879608 0 92 12
2021-07-28 10:50:52 GMT 39.993820 -82.880875 0 92 12
2021-07-28 10:50:41 GMT 39.993820 -82.880875 0 92 12
2021-07-28 10:50:31 GMT 39.993866 -82.881546 0 92 11
2021-07-28 10:50:18 GMT 39.993919 -82.882462 0 95 11
2021-07-28 10:49:47 GMT 39.994938 -82.883224 0 185 12
2021-07-28 10:49:36 GMT 39.995544 -82.883209 0 154 13
2021-07-28 10:49:30 GMT 39.995796 -82.883484 0 109 12
2021-07-28 10:49:16 GMT 39.995903 -82.884773 0 92 9
2021-07-28 10:49:05 GMT 39.995911 -82.884964 0 92 9
2021-07-28 10:49:02 GMT 39.995922 -82.885147 0 92 9
2021-07-28 10:48:52 GMT 39.995956 -82.885681 0 95 9
2021-07-28 10:48:47 GMT 39.995979 -82.885941 0 101 7
2021-07-28 10:46:31 GMT 39.996014 -82.886337 0 61 2
2021-07-28 10:46:17 GMT 39.996197 -82.886230 0 14 4
2021-07-28 10:46:10 GMT 39.996300 -82.886230 0 8 5
2021-07-28 10:45:59 GMT 39.996494 -82.886200 0 5 3
2021-07-28 10:45:26 GMT 39.996586 -82.886185 0 5 0
2021-07-28 10:45:06 GMT 39.996590 -82.886185 0 5 0
2021-07-28 10:44:51 GMT 39.996578 -82.886185 0 5 0
2021-07-28 10:44:47 GMT 39.996586 -82.886185 0 5 0
2021-07-28 10:44:21 GMT 39.996590 -82.886185 0 5 0
2021-07-28 10:43:57 GMT 39.996586 -82.886185 0 5 0
2021-07-28 10:43:31 GMT 39.996590 -82.886185 0 5 0
2021-07-28 10:43:11 GMT 39.996586 -82.886185 0 5 0
2021-07-28 10:43:01 GMT 39.996590 -82.886185 0 5 0
2021-07-28 10:42:47 GMT 39.996586 -82.886185 0 5 0
2021-07-28 10:42:42 GMT 39.996590 -82.886185 0 5 0
2021-07-28 10:42:07 GMT 39.996620 -82.886200 0 5 0
2021-07-28 10:41:57 GMT 39.996609 -82.886200 0 5 0
2021-07-28 10:41:48 GMT 39.996597 -82.886200 0 5 0
2021-07-28 10:41:42 GMT 39.996601 -82.886192 0 5 0
2021-07-28 10:41:31 GMT 39.996609 -82.886185 0 5 0
2021-07-28 10:40:26 GMT 39.996601 -82.886185 0 5 0
2021-07-28 10:40:17 GMT 39.996597 -82.886185 0 5 0
2021-07-28 10:40:06 GMT 39.996601 -82.886185 0 5 0
2021-07-28 10:39:56 GMT 39.996601 -82.886192 0 5 0
2021-07-28 10:39:46 GMT 39.996597 -82.886185 0 5 0
2021-07-28 10:39:35 GMT 39.996620 -82.886169 0 5 0
2021-07-28 10:39:10 GMT 39.996597 -82.886185 0 5 0
2021-07-28 10:39:05 GMT 39.996601 -82.886192 0 5 0
2021-07-28 10:38:45 GMT 39.996597 -82.886185 0 5 0
2021-07-28 10:38:35 GMT 39.996601 -82.886192 0 5 0
2021-07-28 10:38:11 GMT 39.996613 -82.886185 0 5 0
2021-07-28 10:38:01 GMT 39.996609 -82.886185 0 5 0
2021-07-28 10:37:52 GMT 39.996613 -82.886185 0 5 0
2021-07-28 10:37:31 GMT 39.996609 -82.886185 0 5 0
2021-07-28 10:37:11 GMT 39.996601 -82.886185 0 5 0
2021-07-28 10:37:01 GMT 39.996597 -82.886185 0 5 0
2021-07-28 10:36:52 GMT 39.996597 -82.886169 0 5 0
2021-07-28 10:36:31 GMT 39.996601 -82.886185 0 5 0
2021-07-28 10:36:22 GMT 39.996609 -82.886169 0 5 0
2021-07-28 10:36:11 GMT 39.996613 -82.886162 0 5 0
2021-07-28 10:36:00 GMT 39.996620 -82.886154 0 5 0
2021-07-28 10:35:51 GMT 39.996632 -82.886139 0 5 0
2021-07-28 10:35:39 GMT 39.996666 -82.886108 0 5 0
2021-07-28 10:35:19 GMT 39.996597 -82.886185 0 5 0
2021-07-28 10:35:04 GMT 39.996590 -82.886185 0 5 0
2021-07-28 10:34:38 GMT 39.996586 -82.886185 0 5 0
2021-07-28 10:34:13 GMT 39.996590 -82.886185 0 5 0
2021-07-28 10:34:03 GMT 39.996586 -82.886185 0 5 0
2021-07-28 10:33:54 GMT 39.996590 -82.886185 0 5 0
2021-07-28 10:33:19 GMT 39.996586 -82.886185 0 5 0
2021-07-28 10:33:04 GMT 39.996590 -82.886185 0 5 0
2021-07-28 10:32:44 GMT 39.996597 -82.886185 0 5 0
2021-07-28 10:32:29 GMT 39.996586 -82.886185 0 5 0
2021-07-28 10:32:15 GMT 39.996590 -82.886185 0 5 0
2021-07-28 10:32:08 GMT 39.996586 -82.886185 0 5 0

Making use of Plane Finder data

You are free to use the raw flight data, aircraft information and images provided in this report for your own purposes provided the data is correctly attributed to Plane Finder. We ask that you please credit Plane Finder and link to planefinder.net in close proximity to the content.

Optionally one of the following logos (no smaller then 150x24px) can be used and must link to planefinder.net

Embedding the Plane Finder map

You are welcome to embed the Plane Finder playback map on your website to offer visitors a more interactive experience. We suggest using the following HTML code:

<iframe src="//planefinder.net/data/report/WN1092-N7729A-7700-squawk-2021-07-28/map" width="800" height="600" seamless="seamless"></iframe>

Where our data comes from

Plane Finder has a global network of data feeds and antenna radars that receive data broadcast directly from aircraft. The primary technologies used are ADS-B and MLAT. We also show feeds from the FAA and a FLARM glider feed.

Click here to find out more about the Plane Finder network.

How we collect our data